sensor_id;sensor_type;location;lat;lon;timestamp;temperature;humidity
43225;DHT22;28834;48.720;9.208;2022-08-03T00:00:43;19.20;99.90
43225;DHT22;28834;48.720;9.208;2022-08-03T00:03:09;19.20;99.90
43225;DHT22;28834;48.720;9.208;2022-08-03T00:05:35;19.20;99.90
43225;DHT22;28834;48.720;9.208;2022-08-03T00:08:01;19.20;99.90
43225;DHT22;28834;48.720;9.208;2022-08-03T00:10:26;19.20;99.90
43225;DHT22;28834;48.720;9.208;2022-08-03T00:12:52;19.20;99.90
43225;DHT22;28834;48.720;9.208;2022-08-03T00:15:18;19.20;99.90
43225;DHT22;28834;48.720;9.208;2022-08-03T00:17:44;19.10;99.90
43225;DHT22;28834;48.720;9.208;2022-08-03T00:20:10;19.10;99.90
43225;DHT22;28834;48.720;9.208;2022-08-03T00:22:36;19.10;99.90
43225;DHT22;28834;48.720;9.208;2022-08-03T00:25:01;19.10;99.90
43225;DHT22;28834;48.720;9.208;2022-08-03T00:27:27;19.10;99.90
43225;DHT22;28834;48.720;9.208;2022-08-03T00:29:52;19.10;99.90
43225;DHT22;28834;48.720;9.208;2022-08-03T00:32:18;19.00;99.90
43225;DHT22;28834;48.720;9.208;2022-08-03T00:34:43;19.00;99.90
43225;DHT22;28834;48.720;9.208;2022-08-03T00:37:09;19.00;99.90
43225;DHT22;28834;48.720;9.208;2022-08-03T00:39:34;18.90;99.90
43225;DHT22;28834;48.720;9.208;2022-08-03T00:42:04;18.90;99.90
43225;DHT22;28834;48.720;9.208;2022-08-03T00:44:30;18.90;99.90
43225;DHT22;28834;48.720;9.208;2022-08-03T00:46:56;18.90;99.90
43225;DHT22;28834;48.720;9.208;2022-08-03T00:49:22;18.90;99.90
43225;DHT22;28834;48.720;9.208;2022-08-03T00:51:47;18.90;99.90
43225;DHT22;28834;48.720;9.208;2022-08-03T00:54:14;18.90;99.90
43225;DHT22;28834;48.720;9.208;2022-08-03T00:56:40;18.90;99.90
43225;DHT22;28834;48.720;9.208;2022-08-03T00:59:09;18.90;99.90
43225;DHT22;28834;48.720;9.208;2022-08-03T01:01:35;18.90;99.90
43225;DHT22;28834;48.720;9.208;2022-08-03T01:04:00;18.90;99.90
43225;DHT22;28834;48.720;9.208;2022-08-03T01:09:17;18.90;99.90
43225;DHT22;28834;48.720;9.208;2022-08-03T01:11:50;18.80;99.90
43225;DHT22;28834;48.720;9.208;2022-08-03T01:17:04;18.80;99.90
43225;DHT22;28834;48.720;9.208;2022-08-03T01:19:55;18.60;99.90
43225;DHT22;28834;48.720;9.208;2022-08-03T01:31:03;18.50;99.90
43225;DHT22;28834;48.720;9.208;2022-08-03T01:33:39;18.50;99.90
43225;DHT22;28834;48.720;9.208;2022-08-03T01:36:10;18.40;99.90
43225;DHT22;28834;48.720;9.208;2022-08-03T01:39:06;18.40;99.90
43225;DHT22;28834;48.720;9.208;2022-08-03T01:41:38;18.40;99.90
43225;DHT22;28834;48.720;9.208;2022-08-03T01:44:06;18.40;99.90
43225;DHT22;28834;48.720;9.208;2022-08-03T01:46:34;18.30;99.90
43225;DHT22;28834;48.720;9.208;2022-08-03T01:49:00;18.30;99.90
43225;DHT22;28834;48.720;9.208;2022-08-03T01:51:27;18.30;99.90
43225;DHT22;28834;48.720;9.208;2022-08-03T01:53:54;18.30;99.90
43225;DHT22;28834;48.720;9.208;2022-08-03T01:56:23;18.30;99.90
43225;DHT22;28834;48.720;9.208;2022-08-03T01:58:49;18.30;99.90
43225;DHT22;28834;48.720;9.208;2022-08-03T02:01:17;18.30;99.90
43225;DHT22;28834;48.720;9.208;2022-08-03T02:03:45;18.20;99.90
43225;DHT22;28834;48.720;9.208;2022-08-03T02:06:12;18.20;99.90
43225;DHT22;28834;48.720;9.208;2022-08-03T02:08:39;18.20;99.90
43225;DHT22;28834;48.720;9.208;2022-08-03T02:11:06;18.20;99.90
43225;DHT22;28834;48.720;9.208;2022-08-03T02:13:33;18.30;99.90
43225;DHT22;28834;48.720;9.208;2022-08-03T02:16:00;18.30;99.90
43225;DHT22;28834;48.720;9.208;2022-08-03T02:18:27;18.30;99.90
43225;DHT22;28834;48.720;9.208;2022-08-03T02:20:54;18.30;99.90
43225;DHT22;28834;48.720;9.208;2022-08-03T02:23:20;18.20;99.90
43225;DHT22;28834;48.720;9.208;2022-08-03T02:25:54;18.20;99.90
43225;DHT22;28834;48.720;9.208;2022-08-03T02:28:34;18.20;99.90
43225;DHT22;28834;48.720;9.208;2022-08-03T02:31:03;18.20;99.90
43225;DHT22;28834;48.720;9.208;2022-08-03T02:33:31;18.10;99.90
43225;DHT22;28834;48.720;9.208;2022-08-03T02:35:59;18.20;99.90
43225;DHT22;28834;48.720;9.208;2022-08-03T02:38:32;18.10;99.90
43225;DHT22;28834;48.720;9.208;2022-08-03T02:40:59;18.10;99.90
43225;DHT22;28834;48.720;9.208;2022-08-03T02:43:25;18.00;99.90
43225;DHT22;28834;48.720;9.208;2022-08-03T02:45:53;18.10;99.90
43225;DHT22;28834;48.720;9.208;2022-08-03T02:48:26;18.00;99.90
43225;DHT22;28834;48.720;9.208;2022-08-03T02:50:53;18.00;99.90
43225;DHT22;28834;48.720;9.208;2022-08-03T02:53:21;18.00;99.90
43225;DHT22;28834;48.720;9.208;2022-08-03T02:55:49;17.90;99.90
43225;DHT22;28834;48.720;9.208;2022-08-03T02:58:18;17.90;99.90
43225;DHT22;28834;48.720;9.208;2022-08-03T03:00:48;17.80;99.90
43225;DHT22;28834;48.720;9.208;2022-08-03T03:03:16;17.80;99.90
43225;DHT22;28834;48.720;9.208;2022-08-03T03:05:42;17.70;99.90
43225;DHT22;28834;48.720;9.208;2022-08-03T03:08:11;17.70;99.90
43225;DHT22;28834;48.720;9.208;2022-08-03T03:10:38;17.70;99.90
43225;DHT22;28834;48.720;9.208;2022-08-03T03:13:05;17.70;99.90
43225;DHT22;28834;48.720;9.208;2022-08-03T03:15:32;17.70;99.90
43225;DHT22;28834;48.720;9.208;2022-08-03T03:18:00;17.60;99.90
43225;DHT22;28834;48.720;9.208;2022-08-03T03:20:27;17.60;99.90
43225;DHT22;28834;48.720;9.208;2022-08-03T03:22:54;17.50;99.90
43225;DHT22;28834;48.720;9.208;2022-08-03T03:25:20;17.50;99.90
43225;DHT22;28834;48.720;9.208;2022-08-03T03:27:46;17.50;99.90
43225;DHT22;28834;48.720;9.208;2022-08-03T03:30:13;17.50;99.90
43225;DHT22;28834;48.720;9.208;2022-08-03T03:32:39;17.50;99.90
43225;DHT22;28834;48.720;9.208;2022-08-03T03:35:06;17.50;99.90
43225;DHT22;28834;48.720;9.208;2022-08-03T03:37:32;17.50;99.90
43225;DHT22;28834;48.720;9.208;2022-08-03T03:39:57;17.50;99.90
43225;DHT22;28834;48.720;9.208;2022-08-03T03:42:24;17.50;99.90
43225;DHT22;28834;48.720;9.208;2022-08-03T03:44:50;17.50;99.90
43225;DHT22;28834;48.720;9.208;2022-08-03T03:47:16;17.50;99.90
43225;DHT22;28834;48.720;9.208;2022-08-03T03:49:42;17.40;99.90
43225;DHT22;28834;48.720;9.208;2022-08-03T03:52:07;17.40;99.90
43225;DHT22;28834;48.720;9.208;2022-08-03T03:54:44;17.40;99.90
43225;DHT22;28834;48.720;9.208;2022-08-03T03:57:10;17.30;99.90
43225;DHT22;28834;48.720;9.208;2022-08-03T03:59:42;17.30;99.90
43225;DHT22;28834;48.720;9.208;2022-08-03T04:02:09;17.30;99.90
43225;DHT22;28834;48.720;9.208;2022-08-03T04:04:36;17.30;99.90
43225;DHT22;28834;48.720;9.208;2022-08-03T04:07:23;17.20;99.90
43225;DHT22;28834;48.720;9.208;2022-08-03T04:10:13;17.20;99.90
43225;DHT22;28834;48.720;9.208;2022-08-03T04:12:59;17.20;99.90
43225;DHT22;28834;48.720;9.208;2022-08-03T04:15:27;17.20;99.90
43225;DHT22;28834;48.720;9.208;2022-08-03T04:17:56;17.20;99.90
43225;DHT22;28834;48.720;9.208;2022-08-03T04:20:23;17.30;99.90
43225;DHT22;28834;48.720;9.208;2022-08-03T04:22:52;17.30;99.90
43225;DHT22;28834;48.720;9.208;2022-08-03T04:25:20;17.30;99.90
43225;DHT22;28834;48.720;9.208;2022-08-03T04:27:48;17.40;99.90
43225;DHT22;28834;48.720;9.208;2022-08-03T04:30:16;17.40;99.90
43225;DHT22;28834;48.720;9.208;2022-08-03T04:32:44;17.50;99.90
43225;DHT22;28834;48.720;9.208;2022-08-03T04:35:15;17.50;99.90
43225;DHT22;28834;48.720;9.208;2022-08-03T04:37:42;17.50;99.90
43225;DHT22;28834;48.720;9.208;2022-08-03T04:40:13;17.50;99.90
43225;DHT22;28834;48.720;9.208;2022-08-03T04:42:39;17.60;99.90
43225;DHT22;28834;48.720;9.208;2022-08-03T04:45:07;17.60;99.90
43225;DHT22;28834;48.720;9.208;2022-08-03T04:47:37;17.60;99.90
43225;DHT22;28834;48.720;9.208;2022-08-03T04:50:04;17.60;99.90
43225;DHT22;28834;48.720;9.208;2022-08-03T04:52:30;17.60;99.90
43225;DHT22;28834;48.720;9.208;2022-08-03T04:54:57;17.60;99.90
43225;DHT22;28834;48.720;9.208;2022-08-03T04:57:22;17.70;99.90
43225;DHT22;28834;48.720;9.208;2022-08-03T04:59:52;17.80;99.90
43225;DHT22;28834;48.720;9.208;2022-08-03T05:02:21;17.80;99.90
43225;DHT22;28834;48.720;9.208;2022-08-03T05:04:47;17.90;99.90
43225;DHT22;28834;48.720;9.208;2022-08-03T05:07:13;17.90;99.90
43225;DHT22;28834;48.720;9.208;2022-08-03T05:09:38;17.90;99.90
43225;DHT22;28834;48.720;9.208;2022-08-03T05:12:05;17.90;99.90
43225;DHT22;28834;48.720;9.208;2022-08-03T05:14:32;18.00;99.90
43225;DHT22;28834;48.720;9.208;2022-08-03T05:16:57;18.10;99.90
43225;DHT22;28834;48.720;9.208;2022-08-03T05:19:23;18.10;99.90
43225;DHT22;28834;48.720;9.208;2022-08-03T05:21:48;18.20;99.90
43225;DHT22;28834;48.720;9.208;2022-08-03T05:24:14;18.20;99.90
43225;DHT22;28834;48.720;9.208;2022-08-03T05:26:39;18.30;99.90
43225;DHT22;28834;48.720;9.208;2022-08-03T05:29:05;18.30;99.90
43225;DHT22;28834;48.720;9.208;2022-08-03T05:31:31;18.40;99.90
43225;DHT22;28834;48.720;9.208;2022-08-03T05:33:57;18.40;99.90
43225;DHT22;28834;48.720;9.208;2022-08-03T05:36:22;18.50;99.90
43225;DHT22;28834;48.720;9.208;2022-08-03T05:38:48;18.60;99.90
43225;DHT22;28834;48.720;9.208;2022-08-03T05:41:13;18.70;99.90
43225;DHT22;28834;48.720;9.208;2022-08-03T05:43:39;18.80;99.90
43225;DHT22;28834;48.720;9.208;2022-08-03T05:46:05;18.90;99.90
43225;DHT22;28834;48.720;9.208;2022-08-03T05:48:31;19.00;99.90
43225;DHT22;28834;48.720;9.208;2022-08-03T05:50:56;19.00;99.90
43225;DHT22;28834;48.720;9.208;2022-08-03T05:53:22;19.20;99.90
43225;DHT22;28834;48.720;9.208;2022-08-03T05:55:47;19.20;99.90
43225;DHT22;28834;48.720;9.208;2022-08-03T05:58:13;19.30;99.90
43225;DHT22;28834;48.720;9.208;2022-08-03T06:00:38;19.30;99.90
43225;DHT22;28834;48.720;9.208;2022-08-03T06:03:04;19.50;99.90
43225;DHT22;28834;48.720;9.208;2022-08-03T06:05:29;19.60;99.90
43225;DHT22;28834;48.720;9.208;2022-08-03T06:07:55;19.70;99.90
43225;DHT22;28834;48.720;9.208;2022-08-03T06:10:21;19.80;99.90
43225;DHT22;28834;48.720;9.208;2022-08-03T06:12:46;19.90;99.90
43225;DHT22;28834;48.720;9.208;2022-08-03T06:15:14;20.00;99.90
43225;DHT22;28834;48.720;9.208;2022-08-03T06:17:47;20.10;99.90
43225;DHT22;28834;48.720;9.208;2022-08-03T06:20:19;20.20;99.90
43225;DHT22;28834;48.720;9.208;2022-08-03T06:22:48;20.20;99.90
43225;DHT22;28834;48.720;9.208;2022-08-03T06:25:14;20.40;99.90
43225;DHT22;28834;48.720;9.208;2022-08-03T06:27:41;20.40;99.90
43225;DHT22;28834;48.720;9.208;2022-08-03T06:30:08;20.50;99.90
43225;DHT22;28834;48.720;9.208;2022-08-03T06:32:36;20.60;99.90
43225;DHT22;28834;48.720;9.208;2022-08-03T06:35:01;20.60;99.90
43225;DHT22;28834;48.720;9.208;2022-08-03T06:37:27;20.80;99.90
43225;DHT22;28834;48.720;9.208;2022-08-03T06:39:53;21.00;99.90
43225;DHT22;28834;48.720;9.208;2022-08-03T06:42:19;21.10;99.90
43225;DHT22;28834;48.720;9.208;2022-08-03T06:44:44;21.20;99.90
43225;DHT22;28834;48.720;9.208;2022-08-03T06:47:10;21.30;99.90
43225;DHT22;28834;48.720;9.208;2022-08-03T06:49:36;21.40;99.90
43225;DHT22;28834;48.720;9.208;2022-08-03T06:52:01;21.50;99.90
43225;DHT22;28834;48.720;9.208;2022-08-03T06:54:27;21.70;99.90
43225;DHT22;28834;48.720;9.208;2022-08-03T06:56:53;21.80;99.90
43225;DHT22;28834;48.720;9.208;2022-08-03T06:59:18;21.90;99.90
43225;DHT22;28834;48.720;9.208;2022-08-03T07:01:44;22.10;99.90
43225;DHT22;28834;48.720;9.208;2022-08-03T07:04:10;22.20;99.90
43225;DHT22;28834;48.720;9.208;2022-08-03T07:06:36;22.30;99.90
43225;DHT22;28834;48.720;9.208;2022-08-03T07:09:02;22.40;99.90
43225;DHT22;28834;48.720;9.208;2022-08-03T07:11:28;22.60;99.90
43225;DHT22;28834;48.720;9.208;2022-08-03T07:13:54;22.70;99.90
43225;DHT22;28834;48.720;9.208;2022-08-03T07:16:20;22.90;99.90
43225;DHT22;28834;48.720;9.208;2022-08-03T07:18:46;23.00;99.90
43225;DHT22;28834;48.720;9.208;2022-08-03T07:21:11;23.30;99.90
43225;DHT22;28834;48.720;9.208;2022-08-03T07:23:37;23.50;99.90
43225;DHT22;28834;48.720;9.208;2022-08-03T07:26:03;23.80;99.90
43225;DHT22;28834;48.720;9.208;2022-08-03T07:28:28;23.90;99.90
43225;DHT22;28834;48.720;9.208;2022-08-03T07:30:54;24.10;99.90
43225;DHT22;28834;48.720;9.208;2022-08-03T07:33:20;24.30;99.90
43225;DHT22;28834;48.720;9.208;2022-08-03T07:35:45;24.50;99.90
43225;DHT22;28834;48.720;9.208;2022-08-03T07:38:11;24.70;99.90
43225;DHT22;28834;48.720;9.208;2022-08-03T07:40:36;25.00;99.90
43225;DHT22;28834;48.720;9.208;2022-08-03T07:43:02;25.10;99.90
43225;DHT22;28834;48.720;9.208;2022-08-03T07:45:30;25.30;99.90
43225;DHT22;28834;48.720;9.208;2022-08-03T07:47:55;25.50;99.60
43225;DHT22;28834;48.720;9.208;2022-08-03T07:50:21;25.70;99.20
43225;DHT22;28834;48.720;9.208;2022-08-03T07:52:47;25.80;99.60
43225;DHT22;28834;48.720;9.208;2022-08-03T07:55:22;26.00;99.70
43225;DHT22;28834;48.720;9.208;2022-08-03T07:58:02;26.20;99.10
43225;DHT22;28834;48.720;9.208;2022-08-03T08:00:28;26.30;98.00
43225;DHT22;28834;48.720;9.208;2022-08-03T08:02:54;26.40;97.20
43225;DHT22;28834;48.720;9.208;2022-08-03T08:05:19;26.40;96.10
43225;DHT22;28834;48.720;9.208;2022-08-03T08:07:45;26.50;96.70
43225;DHT22;28834;48.720;9.208;2022-08-03T08:10:11;26.60;96.60
43225;DHT22;28834;48.720;9.208;2022-08-03T08:12:37;26.70;96.60
43225;DHT22;28834;48.720;9.208;2022-08-03T08:15:04;26.80;95.70
43225;DHT22;28834;48.720;9.208;2022-08-03T08:17:30;26.90;94.80
43225;DHT22;28834;48.720;9.208;2022-08-03T08:19:55;27.00;94.90
43225;DHT22;28834;48.720;9.208;2022-08-03T08:22:22;27.10;94.50
43225;DHT22;28834;48.720;9.208;2022-08-03T08:24:47;27.10;91.80
43225;DHT22;28834;48.720;9.208;2022-08-03T08:27:14;27.10;92.90
43225;DHT22;28834;48.720;9.208;2022-08-03T08:29:39;27.20;94.00
43225;DHT22;28834;48.720;9.208;2022-08-03T08:32:05;27.40;93.60
43225;DHT22;28834;48.720;9.208;2022-08-03T08:34:31;27.50;93.10
43225;DHT22;28834;48.720;9.208;2022-08-03T08:36:56;27.60;93.00
43225;DHT22;28834;48.720;9.208;2022-08-03T08:39:23;27.70;92.30
43225;DHT22;28834;48.720;9.208;2022-08-03T08:41:51;27.80;90.90
43225;DHT22;28834;48.720;9.208;2022-08-03T08:44:17;28.00;91.30
43225;DHT22;28834;48.720;9.208;2022-08-03T08:46:43;28.10;84.70
43225;DHT22;28834;48.720;9.208;2022-08-03T08:49:09;28.10;90.00
43225;DHT22;28834;48.720;9.208;2022-08-03T08:51:35;28.30;87.00
43225;DHT22;28834;48.720;9.208;2022-08-03T08:54:06;28.40;84.80
43225;DHT22;28834;48.720;9.208;2022-08-03T08:56:32;28.40;81.40
43225;DHT22;28834;48.720;9.208;2022-08-03T08:59:00;28.40;82.90
43225;DHT22;28834;48.720;9.208;2022-08-03T09:01:26;28.40;80.70
43225;DHT22;28834;48.720;9.208;2022-08-03T09:03:53;28.40;85.00
43225;DHT22;28834;48.720;9.208;2022-08-03T09:06:22;28.60;83.50
43225;DHT22;28834;48.720;9.208;2022-08-03T09:08:48;28.60;78.60
43225;DHT22;28834;48.720;9.208;2022-08-03T09:11:14;28.70;81.10
43225;DHT22;28834;48.720;9.208;2022-08-03T09:13:40;28.90;81.30
43225;DHT22;28834;48.720;9.208;2022-08-03T09:16:16;28.90;81.60
43225;DHT22;28834;48.720;9.208;2022-08-03T09:18:47;29.00;79.60
43225;DHT22;28834;48.720;9.208;2022-08-03T09:23:47;29.00;77.60
43225;DHT22;28834;48.720;9.208;2022-08-03T09:26:27;29.10;80.50
43225;DHT22;28834;48.720;9.208;2022-08-03T09:34:03;29.40;77.00
43225;DHT22;28834;48.720;9.208;2022-08-03T09:36:43;29.60;75.50
43225;DHT22;28834;48.720;9.208;2022-08-03T09:39:12;29.40;72.20
43225;DHT22;28834;48.720;9.208;2022-08-03T09:41:47;29.50;78.30
43225;DHT22;28834;48.720;9.208;2022-08-03T09:44:13;29.70;73.00
43225;DHT22;28834;48.720;9.208;2022-08-03T09:46:54;29.70;74.40
43225;DHT22;28834;48.720;9.208;2022-08-03T09:49:23;29.80;69.70
43225;DHT22;28834;48.720;9.208;2022-08-03T09:51:49;29.90;71.50
43225;DHT22;28834;48.720;9.208;2022-08-03T09:54:30;30.00;69.50
43225;DHT22;28834;48.720;9.208;2022-08-03T09:56:56;30.00;70.50
43225;DHT22;28834;48.720;9.208;2022-08-03T09:59:27;30.20;71.30
43225;DHT22;28834;48.720;9.208;2022-08-03T10:01:54;30.10;73.00
43225;DHT22;28834;48.720;9.208;2022-08-03T10:04:20;30.30;66.90
43225;DHT22;28834;48.720;9.208;2022-08-03T10:07:07;30.30;67.30
43225;DHT22;28834;48.720;9.208;2022-08-03T10:09:37;30.50;71.30
43225;DHT22;28834;48.720;9.208;2022-08-03T10:12:12;30.50;71.20
43225;DHT22;28834;48.720;9.208;2022-08-03T10:14:39;30.60;66.30
43225;DHT22;28834;48.720;9.208;2022-08-03T10:17:06;30.60;66.60
43225;DHT22;28834;48.720;9.208;2022-08-03T10:19:32;30.70;64.20
43225;DHT22;28834;48.720;9.208;2022-08-03T10:22:02;30.60;67.00
43225;DHT22;28834;48.720;9.208;2022-08-03T10:24:29;30.60;64.80
43225;DHT22;28834;48.720;9.208;2022-08-03T10:27:03;30.80;65.30
43225;DHT22;28834;48.720;9.208;2022-08-03T10:29:36;30.90;66.10
43225;DHT22;28834;48.720;9.208;2022-08-03T10:32:03;31.00;64.10
43225;DHT22;28834;48.720;9.208;2022-08-03T10:34:34;30.90;65.70
43225;DHT22;28834;48.720;9.208;2022-08-03T10:37:08;31.00;63.00
43225;DHT22;28834;48.720;9.208;2022-08-03T10:39:35;31.20;61.40
43225;DHT22;28834;48.720;9.208;2022-08-03T10:42:01;31.30;61.50
43225;DHT22;28834;48.720;9.208;2022-08-03T10:44:32;31.30;59.70
43225;DHT22;28834;48.720;9.208;2022-08-03T10:46:58;31.30;63.30
43225;DHT22;28834;48.720;9.208;2022-08-03T10:49:24;31.30;60.90
43225;DHT22;28834;48.720;9.208;2022-08-03T10:51:50;31.30;59.60
43225;DHT22;28834;48.720;9.208;2022-08-03T10:54:41;31.30;62.60
43225;DHT22;28834;48.720;9.208;2022-08-03T10:57:45;31.50;62.10
43225;DHT22;28834;48.720;9.208;2022-08-03T11:00:13;31.60;58.40
43225;DHT22;28834;48.720;9.208;2022-08-03T11:05:33;31.70;57.00
43225;DHT22;28834;48.720;9.208;2022-08-03T11:10:44;31.80;59.30
43225;DHT22;28834;48.720;9.208;2022-08-03T11:13:15;31.70;58.80
43225;DHT22;28834;48.720;9.208;2022-08-03T11:15:43;31.80;58.60
43225;DHT22;28834;48.720;9.208;2022-08-03T11:18:11;31.80;58.60
43225;DHT22;28834;48.720;9.208;2022-08-03T11:20:56;31.80;60.50
43225;DHT22;28834;48.720;9.208;2022-08-03T11:26:13;31.90;59.10
43225;DHT22;28834;48.720;9.208;2022-08-03T11:28:40;32.00;59.40
43225;DHT22;28834;48.720;9.208;2022-08-03T11:34:10;32.10;58.20
43225;DHT22;28834;48.720;9.208;2022-08-03T11:39:43;32.20;56.30
43225;DHT22;28834;48.720;9.208;2022-08-03T11:44:47;31.90;59.80
43225;DHT22;28834;48.720;9.208;2022-08-03T11:47:13;31.70;60.50
43225;DHT22;28834;48.720;9.208;2022-08-03T11:49:44;31.60;61.10
43225;DHT22;28834;48.720;9.208;2022-08-03T11:52:11;31.60;57.90
43225;DHT22;28834;48.720;9.208;2022-08-03T11:54:38;31.70;60.00
43225;DHT22;28834;48.720;9.208;2022-08-03T11:57:03;31.70;58.70
43225;DHT22;28834;48.720;9.208;2022-08-03T11:59:33;31.70;57.70
43225;DHT22;28834;48.720;9.208;2022-08-03T12:04:58;31.70;59.70
43225;DHT22;28834;48.720;9.208;2022-08-03T12:07:28;31.70;60.80
43225;DHT22;28834;48.720;9.208;2022-08-03T12:10:10;31.70;60.30
43225;DHT22;28834;48.720;9.208;2022-08-03T12:12:37;31.70;58.70
43225;DHT22;28834;48.720;9.208;2022-08-03T12:15:04;31.60;59.30
43225;DHT22;28834;48.720;9.208;2022-08-03T12:17:37;31.60;60.50
43225;DHT22;28834;48.720;9.208;2022-08-03T12:20:06;31.70;58.90
43225;DHT22;28834;48.720;9.208;2022-08-03T12:22:33;31.70;59.20
43225;DHT22;28834;48.720;9.208;2022-08-03T12:25:00;31.70;58.70
43225;DHT22;28834;48.720;9.208;2022-08-03T12:27:26;31.60;61.50
43225;DHT22;28834;48.720;9.208;2022-08-03T12:29:54;31.70;60.40
43225;DHT22;28834;48.720;9.208;2022-08-03T12:32:20;31.70;58.80
43225;DHT22;28834;48.720;9.208;2022-08-03T12:34:47;31.70;58.90
43225;DHT22;28834;48.720;9.208;2022-08-03T12:37:17;31.60;57.30
43225;DHT22;28834;48.720;9.208;2022-08-03T12:39:49;31.60;58.70
43225;DHT22;28834;48.720;9.208;2022-08-03T12:42:15;31.60;60.00
43225;DHT22;28834;48.720;9.208;2022-08-03T12:44:41;31.50;59.80
43225;DHT22;28834;48.720;9.208;2022-08-03T12:47:06;31.40;59.20
43225;DHT22;28834;48.720;9.208;2022-08-03T12:49:47;31.30;61.30
43225;DHT22;28834;48.720;9.208;2022-08-03T12:52:13;31.30;59.10
43225;DHT22;28834;48.720;9.208;2022-08-03T12:54:39;31.40;59.90
43225;DHT22;28834;48.720;9.208;2022-08-03T12:57:06;31.50;59.40
43225;DHT22;28834;48.720;9.208;2022-08-03T12:59:40;31.50;59.00
43225;DHT22;28834;48.720;9.208;2022-08-03T13:02:21;31.50;57.30
43225;DHT22;28834;48.720;9.208;2022-08-03T13:04:48;31.50;58.90
43225;DHT22;28834;48.720;9.208;2022-08-03T13:07:15;31.60;58.60
43225;DHT22;28834;48.720;9.208;2022-08-03T13:09:46;31.60;59.00
43225;DHT22;28834;48.720;9.208;2022-08-03T13:12:17;31.60;57.60
43225;DHT22;28834;48.720;9.208;2022-08-03T13:14:45;31.60;59.50
43225;DHT22;28834;48.720;9.208;2022-08-03T13:17:11;31.70;61.60
43225;DHT22;28834;48.720;9.208;2022-08-03T13:19:38;31.70;58.00
43225;DHT22;28834;48.720;9.208;2022-08-03T13:24:41;31.70;61.60
43225;DHT22;28834;48.720;9.208;2022-08-03T13:27:08;31.80;58.50
43225;DHT22;28834;48.720;9.208;2022-08-03T13:29:34;31.90;58.60
43225;DHT22;28834;48.720;9.208;2022-08-03T13:32:03;31.80;59.20
43225;DHT22;28834;48.720;9.208;2022-08-03T13:34:28;31.80;57.70
43225;DHT22;28834;48.720;9.208;2022-08-03T13:36:54;31.80;56.60
43225;DHT22;28834;48.720;9.208;2022-08-03T13:39:20;31.80;57.30
43225;DHT22;28834;48.720;9.208;2022-08-03T13:41:45;31.80;57.80
43225;DHT22;28834;48.720;9.208;2022-08-03T13:44:11;31.80;58.70
43225;DHT22;28834;48.720;9.208;2022-08-03T13:46:37;31.80;57.60
43225;DHT22;28834;48.720;9.208;2022-08-03T13:49:03;31.70;57.10
43225;DHT22;28834;48.720;9.208;2022-08-03T13:51:28;31.70;61.00
43225;DHT22;28834;48.720;9.208;2022-08-03T13:53:54;31.70;56.90
43225;DHT22;28834;48.720;9.208;2022-08-03T13:56:20;31.70;57.10
43225;DHT22;28834;48.720;9.208;2022-08-03T13:58:46;31.80;57.30
43225;DHT22;28834;48.720;9.208;2022-08-03T14:01:11;31.80;57.20
43225;DHT22;28834;48.720;9.208;2022-08-03T14:03:37;31.90;56.70
43225;DHT22;28834;48.720;9.208;2022-08-03T14:06:03;31.90;57.70
43225;DHT22;28834;48.720;9.208;2022-08-03T14:08:28;32.00;57.20
43225;DHT22;28834;48.720;9.208;2022-08-03T14:10:54;32.10;56.10
43225;DHT22;28834;48.720;9.208;2022-08-03T14:13:20;32.20;55.50
43225;DHT22;28834;48.720;9.208;2022-08-03T14:15:46;32.20;53.90
43225;DHT22;28834;48.720;9.208;2022-08-03T14:18:12;32.30;56.20
43225;DHT22;28834;48.720;9.208;2022-08-03T14:20:37;32.40;54.80
43225;DHT22;28834;48.720;9.208;2022-08-03T14:23:03;32.50;55.50
43225;DHT22;28834;48.720;9.208;2022-08-03T14:25:29;32.60;55.70
43225;DHT22;28834;48.720;9.208;2022-08-03T14:27:55;32.60;54.80
43225;DHT22;28834;48.720;9.208;2022-08-03T14:30:21;32.50;54.10
43225;DHT22;28834;48.720;9.208;2022-08-03T14:32:47;32.60;54.20
43225;DHT22;28834;48.720;9.208;2022-08-03T14:35:12;32.70;56.90
43225;DHT22;28834;48.720;9.208;2022-08-03T14:37:38;32.90;54.40
43225;DHT22;28834;48.720;9.208;2022-08-03T14:40:04;33.10;55.80
43225;DHT22;28834;48.720;9.208;2022-08-03T14:42:29;33.40;55.50
43225;DHT22;28834;48.720;9.208;2022-08-03T14:44:55;33.50;52.80
43225;DHT22;28834;48.720;9.208;2022-08-03T14:47:21;33.60;53.10
43225;DHT22;28834;48.720;9.208;2022-08-03T14:49:46;33.60;52.80
43225;DHT22;28834;48.720;9.208;2022-08-03T14:52:12;33.50;52.10
43225;DHT22;28834;48.720;9.208;2022-08-03T14:54:37;33.50;52.90
43225;DHT22;28834;48.720;9.208;2022-08-03T14:57:03;33.70;53.90
43225;DHT22;28834;48.720;9.208;2022-08-03T14:59:28;33.70;52.30
43225;DHT22;28834;48.720;9.208;2022-08-03T15:01:54;33.90;52.60
43225;DHT22;28834;48.720;9.208;2022-08-03T15:04:20;33.90;51.90
43225;DHT22;28834;48.720;9.208;2022-08-03T15:06:45;34.00;52.60
43225;DHT22;28834;48.720;9.208;2022-08-03T15:09:11;33.90;51.50
43225;DHT22;28834;48.720;9.208;2022-08-03T15:11:36;33.80;51.70
43225;DHT22;28834;48.720;9.208;2022-08-03T15:14:02;33.90;52.10
43225;DHT22;28834;48.720;9.208;2022-08-03T15:16:28;33.90;51.80
43225;DHT22;28834;48.720;9.208;2022-08-03T15:18:54;33.90;53.70
43225;DHT22;28834;48.720;9.208;2022-08-03T15:21:19;33.90;52.70
43225;DHT22;28834;48.720;9.208;2022-08-03T15:23:45;33.80;52.30
43225;DHT22;28834;48.720;9.208;2022-08-03T15:26:10;33.60;52.90
43225;DHT22;28834;48.720;9.208;2022-08-03T15:28:36;33.40;53.00
43225;DHT22;28834;48.720;9.208;2022-08-03T15:31:01;33.30;52.40
43225;DHT22;28834;48.720;9.208;2022-08-03T15:33:27;33.20;55.20
43225;DHT22;28834;48.720;9.208;2022-08-03T15:35:53;33.00;55.10
43225;DHT22;28834;48.720;9.208;2022-08-03T15:38:19;32.80;56.80
43225;DHT22;28834;48.720;9.208;2022-08-03T15:40:47;32.60;55.90
43225;DHT22;28834;48.720;9.208;2022-08-03T15:43:13;32.40;57.40
43225;DHT22;28834;48.720;9.208;2022-08-03T15:45:38;32.20;55.50
43225;DHT22;28834;48.720;9.208;2022-08-03T15:48:05;32.00;53.90
43225;DHT22;28834;48.720;9.208;2022-08-03T15:50:30;31.80;54.20
43225;DHT22;28834;48.720;9.208;2022-08-03T15:52:56;31.60;54.90
43225;DHT22;28834;48.720;9.208;2022-08-03T15:55:21;31.30;53.80
43225;DHT22;28834;48.720;9.208;2022-08-03T15:57:47;31.20;55.10
43225;DHT22;28834;48.720;9.208;2022-08-03T16:00:13;31.00;54.60
43225;DHT22;28834;48.720;9.208;2022-08-03T16:02:39;30.80;54.30
43225;DHT22;28834;48.720;9.208;2022-08-03T16:05:05;30.80;54.40
43225;DHT22;28834;48.720;9.208;2022-08-03T16:07:30;30.60;55.00
43225;DHT22;28834;48.720;9.208;2022-08-03T16:10:11;30.60;55.10
43225;DHT22;28834;48.720;9.208;2022-08-03T16:12:37;30.50;55.10
43225;DHT22;28834;48.720;9.208;2022-08-03T16:15:06;30.40;55.70
43225;DHT22;28834;48.720;9.208;2022-08-03T16:17:31;30.40;57.10